createdAt,value
2022-11-28T00:02:18.719Z,100008.00
2022-11-28T00:04:46.614Z,99996.34
2022-11-28T00:07:15.962Z,99996.81
2022-11-28T00:09:46.123Z,99997.00
2022-11-28T00:12:16.148Z,100002.97
2022-11-28T00:14:44.859Z,99987.50
2022-11-28T00:17:12.666Z,99989.34
2022-11-28T00:19:40.335Z,100000.66
2022-11-28T00:22:07.960Z,99986.53
2022-11-28T00:24:36.902Z,99989.69
2022-11-28T00:27:04.743Z,99983.38
2022-11-28T00:29:32.402Z,99974.22
2022-11-28T00:32:00.218Z,99964.53
2022-11-28T00:34:29.559Z,99956.94
2022-11-28T00:36:57.169Z,99959.41
2022-11-28T00:39:24.936Z,99964.06
2022-11-28T00:41:53.937Z,99956.56
2022-11-28T00:44:21.542Z,99960.38
2022-11-28T00:46:49.179Z,99945.78
2022-11-28T00:49:16.938Z,99957.09
2022-11-28T00:51:44.516Z,99954.41
2022-11-28T00:54:12.229Z,99953.41
2022-11-28T00:56:41.527Z,99952.75
2022-11-28T00:59:10.545Z,99955.06
2022-11-28T01:01:43.567Z,99962.00
2022-11-28T01:04:13.600Z,99959.34
2022-11-28T01:06:43.797Z,99957.41
2022-11-28T01:09:14.406Z,99961.72
2022-11-28T01:11:43.740Z,99965.53
2022-11-28T01:14:14.279Z,99970.53
2022-11-28T01:16:42.196Z,99965.59
2022-11-28T01:19:09.983Z,99962.75
2022-11-28T01:21:37.950Z,99967.25
2022-11-28T01:24:06.231Z,99952.63
2022-11-28T01:26:38.344Z,99950.28
2022-11-28T01:29:06.054Z,99947.16
2022-11-28T01:31:46.198Z,99957.28
2022-11-28T01:34:15.398Z,99963.78
2022-11-28T01:36:43.003Z,99954.78
2022-11-28T01:39:11.161Z,99939.56
2022-11-28T01:41:40.634Z,99932.88
2022-11-28T01:44:47.574Z,99933.25
2022-11-28T01:47:21.950Z,99928.09
2022-11-28T01:49:52.124Z,99929.84
2022-11-28T01:52:21.194Z,99918.03
2022-11-28T01:54:54.570Z,99913.41
2022-11-28T01:57:26.836Z,99899.63
2022-11-28T02:00:00.982Z,99898.97
2022-11-28T02:02:36.112Z,99901.63
2022-11-28T02:05:04.635Z,99906.44
2022-11-28T02:07:33.905Z,99894.63
2022-11-28T02:10:03.703Z,99904.41
2022-11-28T02:13:17.825Z,99895.59
2022-11-28T02:16:01.942Z,99884.81
2022-11-28T02:18:50.376Z,99891.81
2022-11-28T02:21:48.683Z,99877.19
2022-11-28T02:24:45.839Z,99878.22
2022-11-28T02:27:30.980Z,99863.56
2022-11-28T02:30:16.446Z,99884.97
2022-11-28T02:33:10.209Z,99887.47
2022-11-28T02:35:50.169Z,99878.03
2022-11-28T02:38:24.444Z,99880.19
2022-11-28T02:41:03.666Z,99889.66
2022-11-28T02:43:40.149Z,99880.22
2022-11-28T02:46:15.494Z,99869.94
2022-11-28T02:48:50.762Z,99875.72
2022-11-28T02:51:27.782Z,99872.41
2022-11-28T02:53:57.797Z,99863.91
2022-11-28T02:56:26.699Z,99862.56
2022-11-28T02:58:54.559Z,99861.75
2022-11-28T03:01:26.755Z,99865.25
2022-11-28T03:04:20.320Z,99869.44
2022-11-28T03:07:02.806Z,99864.44
2022-11-28T03:09:53.334Z,99858.78
2022-11-28T03:12:26.559Z,99855.59
2022-11-28T03:14:57.455Z,99856.47
2022-11-28T03:17:38.774Z,99866.41
2022-11-28T03:20:17.001Z,99856.06
2022-11-28T03:22:54.951Z,99853.94
2022-11-28T03:25:29.570Z,99854.28
2022-11-28T03:28:04.778Z,99849.31
2022-11-28T03:30:39.251Z,99847.47
2022-11-28T03:33:07.869Z,99842.81
2022-11-28T03:35:45.608Z,99834.34
2022-11-28T03:38:21.105Z,99833.84
2022-11-28T03:40:52.187Z,99831.19
2022-11-28T03:43:26.023Z,99827.38
2022-11-28T03:45:58.736Z,99819.56
2022-11-28T03:48:31.254Z,99828.06
2022-11-28T03:51:05.554Z,99831.38
2022-11-28T03:53:42.599Z,99821.06
2022-11-28T03:56:15.737Z,99818.25
2022-11-28T03:58:50.606Z,99814.59
2022-11-28T04:01:31.640Z,99818.72
2022-11-28T04:04:10.899Z,99821.38
2022-11-28T04:06:51.029Z,99813.41
2022-11-28T04:09:22.820Z,99814.78
2022-11-28T04:11:55.259Z,99815.94
2022-11-28T04:14:26.899Z,99803.16
2022-11-28T04:16:59.609Z,99809.09
2022-11-28T04:19:31.708Z,99805.78
2022-11-28T04:22:11.436Z,99797.66
2022-11-28T04:24:45.742Z,99791.84
2022-11-28T04:27:18.996Z,99793.34
2022-11-28T04:29:51.029Z,99793.53
2022-11-28T04:32:21.694Z,99796.66
2022-11-28T04:34:55.823Z,99790.22
2022-11-28T04:37:28.097Z,99790.19
2022-11-28T04:39:57.697Z,99790.34
2022-11-28T04:42:32.079Z,99780.72
2022-11-28T04:45:07.440Z,99782.22
2022-11-28T04:47:35.638Z,99786.53
2022-11-28T04:50:03.582Z,99789.19
2022-11-28T04:52:41.150Z,99780.06
2022-11-28T04:55:15.772Z,99780.72
2022-11-28T04:57:58.078Z,99779.88
2022-11-28T05:00:27.195Z,99777.22
2022-11-28T05:02:55.979Z,99782.56
2022-11-28T05:05:29.835Z,99786.06
2022-11-28T05:08:27.604Z,99787.41
2022-11-28T05:10:56.122Z,99781.91
2022-11-28T05:13:24.183Z,99778.75
2022-11-28T05:15:52.183Z,99776.25
2022-11-28T05:18:19.946Z,99776.44
2022-11-28T05:20:47.640Z,99782.56
2022-11-28T05:23:16.583Z,99779.75
2022-11-28T05:25:46.239Z,99781.41
2022-11-28T05:28:15.946Z,99772.78
2022-11-28T05:30:43.512Z,99781.22
2022-11-28T05:33:11.126Z,99773.28
2022-11-28T05:35:40.413Z,99780.41
2022-11-28T05:38:13.640Z,99778.44
2022-11-28T05:40:44.342Z,99773.59
2022-11-28T05:43:12.361Z,99771.25
2022-11-28T05:45:40.818Z,99767.13
2022-11-28T05:48:09.839Z,99764.13
2022-11-28T05:50:40.187Z,99763.16
2022-11-28T05:53:08.145Z,99760.66
2022-11-28T05:55:36.204Z,99778.41
2022-11-28T05:58:05.471Z,99775.94
2022-11-28T06:00:33.137Z,99774.44
2022-11-28T06:03:01.624Z,99767.63
2022-11-28T06:05:42.057Z,99769.28
2022-11-28T06:08:12.742Z,99761.97
2022-11-28T06:10:40.923Z,99767.97
2022-11-28T06:13:10.021Z,99763.81
2022-11-28T06:15:38.627Z,99770.09
2022-11-28T06:18:10.986Z,99772.78
2022-11-28T06:20:38.830Z,99762.16
2022-11-28T06:23:06.618Z,99769.63
2022-11-28T06:25:34.472Z,99767.44
2022-11-28T06:28:03.263Z,99770.78
2022-11-28T06:30:32.240Z,99769.13
2022-11-28T06:32:59.816Z,99769.94
2022-11-28T06:35:27.478Z,99775.59
2022-11-28T06:37:55.052Z,99762.66
2022-11-28T06:40:22.695Z,99752.88
2022-11-28T06:42:51.126Z,99764.47
2022-11-28T06:45:18.962Z,99761.31
2022-11-28T06:47:48.744Z,99751.19
2022-11-28T06:50:19.261Z,99757.50
2022-11-28T06:52:46.839Z,99761.47
2022-11-28T06:55:14.474Z,99762.31
2022-11-28T06:57:42.404Z,99763.97
2022-11-28T07:00:11.151Z,99769.28
2022-11-28T07:02:38.852Z,99761.63
2022-11-28T07:05:28.956Z,99767.28
2022-11-28T07:08:18.136Z,99776.59
2022-11-28T07:10:46.058Z,99776.59
2022-11-28T07:13:15.797Z,99788.38
2022-11-28T07:15:49.970Z,99800.84
2022-11-28T07:18:18.019Z,99784.72
2022-11-28T07:20:48.050Z,99788.38
2022-11-28T07:23:15.703Z,99779.75
2022-11-28T07:25:45.496Z,99790.56
2022-11-28T07:28:16.813Z,99787.72
2022-11-28T07:30:47.127Z,99792.03
2022-11-28T07:33:14.803Z,99786.22
2022-11-28T07:35:42.402Z,99791.38
2022-11-28T07:38:11.370Z,99784.41
2022-11-28T07:40:39.301Z,99796.50
2022-11-28T07:43:07.081Z,99792.69
2022-11-28T07:45:53.851Z,99795.38
2022-11-28T07:48:23.207Z,99791.53
2022-11-28T07:50:50.879Z,99786.88
2022-11-28T07:53:19.875Z,99794.34
2022-11-28T07:55:47.795Z,99799.34
2022-11-28T07:58:15.604Z,99791.97
2022-11-28T08:00:43.412Z,99805.75
2022-11-28T08:03:11.273Z,99800.78
2022-11-28T08:05:38.838Z,99801.31
2022-11-28T08:08:07.158Z,99799.97
2022-11-28T08:10:36.245Z,99799.94
2022-11-28T08:13:04.575Z,99798.59
2022-11-28T08:15:32.337Z,99794.09
2022-11-28T08:17:59.985Z,99789.13
2022-11-28T08:20:27.637Z,99789.19
2022-11-28T08:22:55.536Z,99787.84
2022-11-28T08:25:23.734Z,99797.63
2022-11-28T08:27:54.153Z,99799.28
2022-11-28T08:30:22.904Z,99799.66
2022-11-28T08:32:50.657Z,99797.81
2022-11-28T08:35:18.735Z,99803.25
2022-11-28T08:37:47.167Z,99800.78
2022-11-28T08:40:15.880Z,99797.81
2022-11-28T08:42:44.057Z,99793.31
2022-11-28T08:45:13.302Z,99791.78
2022-11-28T08:47:45.032Z,99799.41
2022-11-28T08:50:15.609Z,99784.13
2022-11-28T08:52:51.119Z,99787.72
2022-11-28T08:55:22.210Z,99784.59
2022-11-28T08:57:56.710Z,99789.47
2022-11-28T09:00:26.434Z,99791.97
2022-11-28T09:02:54.615Z,99786.44
2022-11-28T09:05:22.804Z,99785.94
2022-11-28T09:07:56.217Z,99789.22
2022-11-28T09:10:25.730Z,99783.44
2022-11-28T09:12:53.948Z,99787.53
2022-11-28T09:15:22.332Z,99783.06
2022-11-28T09:17:51.541Z,99789.06
2022-11-28T09:20:19.220Z,99800.03
2022-11-28T09:22:47.879Z,99805.25
2022-11-28T09:25:16.799Z,99795.59
2022-11-28T09:27:47.074Z,99803.34
2022-11-28T09:30:15.788Z,99792.81
2022-11-28T09:32:49.425Z,99800.16
2022-11-28T09:35:18.937Z,99805.31
2022-11-28T09:37:48.953Z,99804.41
2022-11-28T09:40:20.569Z,99806.72
2022-11-28T09:42:48.440Z,99802.34
2022-11-28T09:45:20.463Z,99793.81
2022-11-28T09:47:52.578Z,99792.06
2022-11-28T09:50:25.386Z,99792.13
2022-11-28T09:52:59.497Z,99786.78
2022-11-28T09:55:36.469Z,99780.97
2022-11-28T09:58:12.831Z,99765.78
2022-11-28T10:00:56.016Z,99772.25
2022-11-28T10:03:41.871Z,99778.22
2022-11-28T10:06:23.040Z,99778.84
2022-11-28T10:09:10.018Z,99776.56
2022-11-28T10:11:52.116Z,99774.13
2022-11-28T10:14:44.730Z,99766.88
2022-11-28T10:17:26.169Z,99766.41
2022-11-28T10:19:58.340Z,99765.19
2022-11-28T10:22:38.210Z,99770.31
2022-11-28T10:25:15.244Z,99766.34
2022-11-28T10:27:44.819Z,99765.06
2022-11-28T10:30:21.733Z,99756.38
2022-11-28T10:32:58.446Z,99756.88
2022-11-28T10:35:31.637Z,99764.63
2022-11-28T10:38:02.139Z,99765.53
2022-11-28T10:40:39.587Z,99764.16
2022-11-28T10:43:17.195Z,99761.91
2022-11-28T10:45:52.927Z,99757.91
2022-11-28T10:48:40.061Z,99749.38
2022-11-28T10:51:25.462Z,99749.00
2022-11-28T10:54:06.034Z,99750.06
2022-11-28T10:56:42.524Z,99746.50
2022-11-28T10:59:25.335Z,99753.69
2022-11-28T11:01:54.196Z,99745.94
2022-11-28T11:04:26.642Z,99739.19
2022-11-28T11:07:11.484Z,99738.94
2022-11-28T11:09:45.670Z,99735.66
2022-11-28T11:12:23.024Z,99735.53
2022-11-28T11:14:52.208Z,99719.75
2022-11-28T11:17:32.652Z,99716.75
2022-11-28T11:20:03.930Z,99722.94
2022-11-28T11:22:33.092Z,99725.25
2022-11-28T11:25:15.665Z,99726.59
2022-11-28T11:27:52.106Z,99714.19
2022-11-28T11:30:29.204Z,99718.16
2022-11-28T11:32:58.312Z,99728.41
2022-11-28T11:35:32.830Z,99715.41
2022-11-28T11:38:17.811Z,99716.38
2022-11-28T11:40:47.175Z,99721.44
2022-11-28T11:43:27.010Z,99711.38
2022-11-28T11:46:06.741Z,99707.03
2022-11-28T11:48:39.963Z,99707.78
2022-11-28T11:51:08.697Z,99701.41
2022-11-28T11:53:36.465Z,99699.22
2022-11-28T11:56:06.122Z,99707.88
2022-11-28T11:58:42.491Z,99708.66
2022-11-28T12:01:15.278Z,99707.31
2022-11-28T12:03:50.483Z,99708.88
2022-11-28T12:06:24.261Z,99711.38
2022-11-28T12:08:54.192Z,99712.59
2022-11-28T12:11:36.009Z,99714.69
2022-11-28T12:14:16.814Z,99713.13
2022-11-28T12:16:58.617Z,99712.84
2022-11-28T12:19:33.086Z,99708.00
2022-11-28T12:22:12.064Z,99714.81
2022-11-28T12:24:48.483Z,99709.47
2022-11-28T12:27:31.746Z,99710.28
2022-11-28T12:30:17.811Z,99702.66
2022-11-28T12:32:57.570Z,99699.47
2022-11-28T12:35:38.015Z,99707.59
2022-11-28T12:38:19.936Z,99702.34
2022-11-28T12:41:04.969Z,99688.38
2022-11-28T12:43:46.861Z,99699.56
2022-11-28T12:46:31.735Z,99688.44
2022-11-28T12:49:25.008Z,99692.41
2022-11-28T12:52:13.285Z,99690.16
2022-11-28T12:54:52.878Z,99689.47
2022-11-28T12:57:33.745Z,99683.06
2022-11-28T13:00:13.489Z,99687.84
2022-11-28T13:02:57.030Z,99685.88
2022-11-28T13:05:46.136Z,99690.19
2022-11-28T13:08:34.213Z,99691.34
2022-11-28T13:11:16.766Z,99682.19
2022-11-28T13:13:50.212Z,99683.75
2022-11-28T13:16:28.367Z,99679.09
2022-11-28T13:19:05.737Z,99685.69
2022-11-28T13:21:40.776Z,99686.53
2022-11-28T13:24:28.143Z,99685.00
2022-11-28T13:27:03.562Z,99680.25
2022-11-28T13:29:38.892Z,99680.91
2022-11-28T13:32:15.563Z,99694.13
2022-11-28T13:34:44.087Z,99694.22
2022-11-28T13:40:15.255Z,99695.47
2022-11-28T13:43:04.065Z,99692.88
2022-11-28T13:45:39.180Z,99696.03
2022-11-28T13:49:12.664Z,99685.47
2022-11-28T13:51:32.563Z,99686.25
2022-11-28T13:54:50.030Z,99687.91
2022-11-28T13:57:27.081Z,99684.88
2022-11-28T13:59:59.375Z,99672.97
2022-11-28T14:02:36.424Z,99680.09
2022-11-28T14:05:07.136Z,99683.78
2022-11-28T14:07:37.064Z,99685.94
2022-11-28T14:10:32.863Z,99686.56
2022-11-28T14:13:23.556Z,99689.56
2022-11-28T14:16:07.834Z,99684.75
2022-11-28T14:19:04.965Z,99693.66
2022-11-28T14:21:50.643Z,99691.81
2022-11-28T14:24:30.991Z,99696.69
2022-11-28T14:27:01.978Z,99688.47
2022-11-28T14:29:35.866Z,99693.00
2022-11-28T14:34:58.145Z,99692.56
2022-11-28T14:37:58.496Z,99703.00
2022-11-28T14:41:06.693Z,99700.03
2022-11-28T14:43:40.073Z,99707.56
2022-11-28T14:46:28.410Z,99697.19
2022-11-28T14:49:48.571Z,99706.53
2022-11-28T14:52:40.963Z,99709.81
2022-11-28T14:55:21.728Z,99706.25
2022-11-28T14:57:58.979Z,99712.47
2022-11-28T15:00:32.604Z,99710.56
2022-11-28T15:03:20.797Z,99703.09
2022-11-28T15:05:51.683Z,99707.06
2022-11-28T15:08:50.837Z,99710.31
2022-11-28T15:12:02.095Z,99704.84
2022-11-28T15:14:33.034Z,99714.16
2022-11-28T15:17:09.008Z,99719.66
2022-11-28T15:19:46.569Z,99713.84
2022-11-28T15:22:36.819Z,99710.19
2022-11-28T15:25:05.671Z,99709.28
2022-11-28T15:27:37.568Z,99712.19
2022-11-28T15:30:17.847Z,99718.44
2022-11-28T15:32:50.234Z,99715.69
2022-11-28T15:35:21.795Z,99722.72
2022-11-28T15:37:53.748Z,99712.97
2022-11-28T15:40:31.313Z,99714.84
2022-11-28T15:43:11.305Z,99721.22
2022-11-28T15:45:42.730Z,99722.97
2022-11-28T15:51:27.604Z,99723.69
2022-11-28T15:53:55.721Z,99729.03
2022-11-28T15:56:24.550Z,99722.03
2022-11-28T15:58:53.675Z,99730.34
2022-11-28T16:01:23.161Z,99716.16
2022-11-28T16:03:59.504Z,99725.72
2022-11-28T16:06:31.886Z,99730.59
2022-11-28T16:09:04.099Z,99731.91
2022-11-28T16:11:33.755Z,99734.66
2022-11-28T16:14:09.707Z,99733.28
2022-11-28T16:16:39.618Z,99733.75
2022-11-28T16:19:10.046Z,99736.03
2022-11-28T16:21:50.760Z,99732.91
2022-11-28T16:24:35.305Z,99742.38
2022-11-28T16:27:07.659Z,99733.94
2022-11-28T16:29:37.867Z,99736.31
2022-11-28T16:32:21.639Z,99731.88
2022-11-28T16:34:52.705Z,99748.06
2022-11-28T16:37:24.858Z,99734.84
2022-11-28T16:40:09.523Z,99746.22
2022-11-28T16:42:40.569Z,99753.88
2022-11-28T16:45:11.176Z,99739.63
2022-11-28T16:47:39.784Z,99743.25
2022-11-28T16:50:40.762Z,99738.72
2022-11-28T16:53:44.583Z,99744.47
2022-11-28T16:56:25.898Z,99747.78
2022-11-28T16:58:55.981Z,99744.91
2022-11-28T17:01:25.286Z,99747.19
2022-11-28T17:03:55.362Z,99748.53
2022-11-28T17:06:27.386Z,99751.50
2022-11-28T17:08:57.072Z,99742.97
2022-11-28T17:11:30.566Z,99748.19
2022-11-28T17:14:02.283Z,99747.75
2022-11-28T17:16:33.115Z,99744.66
2022-11-28T17:19:00.987Z,99740.69
2022-11-28T17:21:40.707Z,99738.22
2022-11-28T17:24:25.151Z,99746.75
2022-11-28T17:27:05.734Z,99755.50
2022-11-28T17:29:34.823Z,99748.34
2022-11-28T17:32:09.175Z,99745.03
2022-11-28T17:34:38.649Z,99759.84
2022-11-28T17:37:07.178Z,99756.56
2022-11-28T17:39:37.664Z,99759.19
2022-11-28T17:42:10.492Z,99760.13
2022-11-28T17:44:39.145Z,99761.41
2022-11-28T17:47:07.692Z,99759.63
2022-11-28T17:49:40.595Z,99759.94
2022-11-28T17:52:18.374Z,99756.06
2022-11-28T17:54:48.537Z,99756.13
2022-11-28T17:57:16.476Z,99757.03
2022-11-28T17:59:45.474Z,99759.81
2022-11-28T18:02:14.508Z,99756.41
2022-11-28T18:04:43.457Z,99750.34
2022-11-28T18:07:12.101Z,99741.47
2022-11-28T18:12:19.687Z,99753.31
2022-11-28T18:14:48.766Z,99748.31
2022-11-28T18:17:19.352Z,99750.38
2022-11-28T18:22:23.231Z,99756.75
2022-11-28T18:24:56.410Z,99756.69
2022-11-28T18:27:26.929Z,99753.38
2022-11-28T18:29:57.199Z,99759.13
2022-11-28T18:32:29.014Z,99760.72
2022-11-28T18:35:04.917Z,99761.91
2022-11-28T18:37:37.455Z,99759.50
2022-11-28T18:40:09.281Z,99767.13
2022-11-28T18:42:40.223Z,99763.47
2022-11-28T18:45:09.727Z,99773.75
2022-11-28T18:47:38.908Z,99758.13
2022-11-28T18:50:09.374Z,99763.88
2022-11-28T18:52:40.583Z,99770.13
2022-11-28T18:55:10.089Z,99772.47
2022-11-28T18:57:43.399Z,99773.06
2022-11-28T19:00:17.433Z,99772.94
2022-11-28T19:05:51.524Z,99770.66
2022-11-28T19:08:19.366Z,99772.97
2022-11-28T19:10:49.101Z,99772.88
2022-11-28T19:13:24.544Z,99777.03
2022-11-28T19:15:52.590Z,99783.56
2022-11-28T19:18:27.441Z,99771.41
2022-11-28T19:23:32.714Z,99780.25
2022-11-28T19:26:04.346Z,99778.69
2022-11-28T19:28:38.502Z,99776.41
2022-11-28T19:31:15.698Z,99767.09
2022-11-28T19:33:49.394Z,99773.25
2022-11-28T19:36:21.949Z,99761.56
2022-11-28T19:38:53.265Z,99769.66
2022-11-28T19:43:58.436Z,99780.81
2022-11-28T19:46:39.223Z,99776.88
2022-11-28T19:49:34.663Z,99773.00
2022-11-28T19:54:43.433Z,99785.50
2022-11-28T19:59:52.732Z,99779.72
2022-11-28T20:02:23.666Z,99784.16
2022-11-28T20:04:53.964Z,99786.91
2022-11-28T20:07:24.889Z,99782.19
2022-11-28T20:09:53.069Z,99784.69
2022-11-28T20:12:21.244Z,99782.00
2022-11-28T20:14:51.680Z,99792.88
2022-11-28T20:19:56.726Z,99794.19
2022-11-28T20:22:25.296Z,99797.38
2022-11-28T20:38:07.226Z,99802.53
2022-11-28T20:40:39.171Z,99811.69
2022-11-28T20:43:07.615Z,99808.13
2022-11-28T20:45:35.833Z,99803.25
2022-11-28T20:48:04.519Z,99823.78
2022-11-28T20:50:34.877Z,99813.03
2022-11-28T20:53:11.924Z,99817.91
2022-11-28T20:55:40.230Z,99815.25
2022-11-28T20:58:08.854Z,99823.78
2022-11-28T21:00:36.652Z,99817.06
2022-11-28T21:03:04.630Z,99816.25
2022-11-28T21:05:35.994Z,99819.00
2022-11-28T21:08:05.423Z,99816.91
2022-11-28T21:10:35.422Z,99820.75
2022-11-28T21:13:02.999Z,99820.28
2022-11-28T21:15:31.464Z,99826.81
2022-11-28T21:17:58.993Z,99821.09
2022-11-28T21:20:27.084Z,99821.66
2022-11-28T21:22:56.205Z,99819.13
2022-11-28T21:25:24.552Z,99821.16
2022-11-28T21:27:54.433Z,99821.34
2022-11-28T21:30:29.347Z,99826.72
2022-11-28T21:32:59.544Z,99835.97
2022-11-28T21:35:30.379Z,99822.56
2022-11-28T21:37:59.521Z,99827.53
2022-11-28T21:40:30.536Z,99820.84
2022-11-28T21:43:14.055Z,99822.94
2022-11-28T21:45:45.539Z,99821.53
2022-11-28T21:48:13.771Z,99817.97
2022-11-28T21:50:51.608Z,99823.53
2022-11-28T21:53:20.806Z,99818.78
2022-11-28T21:58:26.463Z,99816.31
2022-11-28T22:03:32.837Z,99811.81
2022-11-28T22:06:05.931Z,99818.56
2022-11-28T22:08:38.178Z,99819.06
2022-11-28T22:11:11.229Z,99825.97
2022-11-28T22:16:30.182Z,99828.63
2022-11-28T22:19:01.416Z,99824.50
2022-11-28T22:21:51.417Z,99829.00
2022-11-28T22:24:18.764Z,99832.69
2022-11-28T22:26:50.032Z,99828.00
2022-11-28T22:29:18.886Z,99841.28
2022-11-28T22:31:48.679Z,99835.16
2022-11-28T22:34:16.795Z,99833.69
2022-11-28T22:36:47.185Z,99829.84
2022-11-28T22:39:15.752Z,99839.13
2022-11-28T22:41:44.211Z,99832.22
2022-11-28T22:44:13.660Z,99838.19
2022-11-28T22:46:41.805Z,99842.16
2022-11-28T22:49:11.931Z,99846.34
2022-11-28T22:51:40.368Z,99837.53
2022-11-28T22:54:14.668Z,99846.53
2022-11-28T22:56:48.039Z,99850.50
2022-11-28T22:59:21.106Z,99838.63
2022-11-28T23:01:54.079Z,99846.34
2022-11-28T23:04:29.170Z,99841.63
2022-11-28T23:06:58.045Z,99849.97
2022-11-28T23:09:31.116Z,99856.50
2022-11-28T23:12:09.111Z,99855.53
2022-11-28T23:14:38.249Z,99846.59
2022-11-28T23:17:08.473Z,99855.47
2022-11-28T23:19:44.373Z,99846.47
2022-11-28T23:22:16.337Z,99847.69
2022-11-28T23:24:48.639Z,99852.06
2022-11-28T23:27:18.754Z,99844.94
2022-11-28T23:29:46.579Z,99854.88
2022-11-28T23:32:14.261Z,99854.69
2022-11-28T23:34:43.657Z,99857.25
2022-11-28T23:37:11.525Z,99858.88
2022-11-28T23:39:39.096Z,99849.03
2022-11-28T23:42:06.867Z,99851.63
2022-11-28T23:44:34.427Z,99854.47
2022-11-28T23:47:02.243Z,99854.88
2022-11-28T23:49:30.044Z,99849.50
2022-11-28T23:51:59.267Z,99849.31
2022-11-28T23:54:27.339Z,99853.03
2022-11-28T23:56:55.165Z,99849.47
2022-11-28T23:59:25.274Z,99857.88
